createdAt,value
2019-04-01T16:53:02.360Z,7
2019-04-01T16:54:01.614Z,6
2019-04-01T16:55:01.781Z,7
2019-04-01T16:56:01.923Z,5
2019-04-01T16:57:02.152Z,5
2019-04-01T16:58:03.169Z,5
2019-04-01T16:59:01.611Z,5
2019-04-01T17:00:03.919Z,5
2019-04-01T17:01:02.610Z,5
2019-04-01T17:02:02.037Z,5
2019-04-01T17:03:02.152Z,5
2019-04-01T17:04:01.399Z,5
2019-04-01T17:05:01.636Z,5
2019-04-01T17:06:01.820Z,5
2019-04-01T17:07:02.083Z,5
2019-04-01T17:08:02.232Z,3
2019-04-01T17:09:02.053Z,4
2019-04-01T17:10:04.090Z,3
2019-04-01T17:11:02.179Z,3
2019-04-01T17:12:01.838Z,4
2019-04-01T17:13:01.945Z,3
2019-04-01T17:14:02.137Z,3
2019-04-01T17:15:03.696Z,4
2019-04-01T17:16:01.851Z,3
2019-04-01T17:17:01.866Z,2
2019-04-01T17:18:02.098Z,3
2019-04-01T17:19:02.308Z,2
2019-04-01T17:20:02.447Z,3
2019-04-01T17:21:01.628Z,3
2019-04-01T17:22:02.267Z,4
2019-04-01T17:23:02.132Z,3
2019-04-01T17:24:02.211Z,3
2019-04-01T17:25:01.590Z,3
2019-04-01T17:26:01.680Z,3
2019-04-01T17:27:01.950Z,3
2019-04-01T17:28:02.198Z,5
2019-04-01T17:29:02.371Z,4
2019-04-01T17:30:01.558Z,8
2019-04-01T17:31:01.668Z,4
2019-04-01T17:32:01.874Z,7
2019-04-01T17:33:02.058Z,5
2019-04-01T17:34:02.355Z,5
2019-04-01T17:35:02.020Z,4
2019-04-01T17:36:02.190Z,5
2019-04-01T17:37:01.463Z,7
2019-04-01T17:38:01.710Z,8
2019-04-01T17:39:01.911Z,8
2019-04-01T17:40:02.041Z,8
2019-04-01T17:41:02.274Z,7
2019-04-01T17:42:01.431Z,5
2019-04-01T17:43:01.790Z,9
2019-04-01T17:44:01.986Z,7
2019-04-01T17:45:02.208Z,7
2019-04-01T17:46:01.446Z,7
2019-04-01T17:47:01.754Z,8
2019-04-01T17:48:01.887Z,7
2019-04-01T17:49:02.178Z,7
2019-04-01T17:50:02.331Z,10
2019-04-01T17:51:01.562Z,9
2019-04-01T17:52:04.229Z,9
2019-04-01T17:53:02.019Z,9
2019-04-01T17:54:02.199Z,9
2019-04-01T17:55:02.409Z,9
2019-04-01T17:56:01.665Z,9
2019-04-01T17:57:01.795Z,8
2019-04-01T17:58:01.987Z,11
2019-04-01T17:59:02.194Z,11
2019-04-01T18:00:04.423Z,11
2019-04-01T18:01:02.203Z,11
2019-04-01T18:02:02.408Z,11
2019-04-01T18:03:01.610Z,10
2019-04-01T18:04:02.529Z,11
2019-04-01T18:05:01.911Z,11
2019-04-01T18:06:02.157Z,11
2019-04-01T18:07:02.328Z,11
2019-04-01T18:08:01.697Z,17
2019-04-01T18:09:02.165Z,15
2019-04-01T18:10:02.213Z,13
2019-04-01T18:11:02.406Z,13
2019-04-01T18:12:01.725Z,13
2019-04-01T18:13:01.830Z,13
2019-04-01T18:14:02.945Z,15
2019-04-01T18:15:02.332Z,17
2019-04-01T18:16:01.621Z,17
2019-04-01T18:17:01.876Z,17
2019-04-01T18:18:02.018Z,17
2019-04-01T18:19:02.135Z,17
2019-04-01T18:20:02.530Z,12
2019-04-01T18:21:03.244Z,14
2019-04-01T18:22:01.975Z,14
2019-04-01T18:23:02.171Z,14
2019-04-01T18:24:02.366Z,14
2019-04-01T18:25:01.627Z,14
2019-04-01T18:26:01.924Z,11
2019-04-01T18:27:02.086Z,9
2019-04-01T18:28:02.398Z,14
2019-04-01T18:29:01.599Z,14
2019-04-01T18:30:01.800Z,14
2019-04-01T18:31:02.050Z,14
2019-04-01T18:32:02.382Z,10
2019-04-01T18:33:01.544Z,10
2019-04-01T18:34:01.780Z,8
2019-04-01T18:35:04.009Z,8
2019-04-01T18:36:02.153Z,8
2019-04-01T18:37:02.256Z,8
2019-04-01T18:38:01.530Z,8
2019-04-01T18:39:03.949Z,8
2019-04-01T18:40:01.937Z,8
2019-04-01T18:41:02.064Z,8
2019-04-01T18:42:03.054Z,8
2019-04-01T18:43:01.583Z,8
2019-04-01T18:44:01.650Z,7
2019-04-01T18:45:01.889Z,5
2019-04-01T18:46:02.108Z,7
2019-04-01T18:47:04.039Z,7
2019-04-01T18:48:01.608Z,7
2019-04-01T18:49:01.872Z,7
2019-04-01T18:50:02.090Z,7
2019-04-01T18:51:02.342Z,7
2019-04-01T18:52:01.554Z,7
2019-04-01T18:53:01.764Z,7
2019-04-01T18:54:01.975Z,7
2019-04-01T18:55:02.507Z,7
2019-04-01T18:56:01.546Z,14
2019-04-01T18:57:03.615Z,9
2019-04-01T18:58:02.037Z,10
2019-04-01T18:59:02.171Z,10
2019-04-01T19:00:04.628Z,10
2019-04-01T19:01:04.368Z,10
2019-04-01T19:02:01.698Z,14
2019-04-01T19:03:01.884Z,18
2019-04-01T19:04:02.092Z,15
2019-04-01T19:05:02.363Z,15
2019-04-01T19:06:01.542Z,15
2019-04-01T19:07:01.827Z,15
2019-04-01T19:08:01.906Z,16
2019-04-01T19:09:09.136Z,17
2019-04-01T19:10:06.406Z,15
2019-04-01T19:11:02.540Z,15
2019-04-01T19:12:04.146Z,15
2019-04-01T19:13:06.588Z,15
2019-04-01T19:14:02.291Z,15
2019-04-01T19:15:02.908Z,15
2019-04-01T19:16:03.251Z,12
2019-04-01T19:17:01.914Z,12
2019-04-01T19:18:02.184Z,12
2019-04-01T19:19:01.786Z,12
2019-04-01T19:20:02.058Z,12
2019-04-01T19:21:04.889Z,15
2019-04-01T19:22:02.299Z,15
2019-04-01T19:23:02.239Z,12
2019-04-01T19:24:01.785Z,12
2019-04-01T19:25:01.968Z,12
2019-04-01T19:26:02.114Z,12
2019-04-01T19:27:02.403Z,14
2019-04-01T19:28:01.610Z,15
2019-04-01T19:29:01.775Z,12
2019-04-01T19:30:02.300Z,12
2019-04-01T19:31:02.293Z,12
2019-04-01T19:32:01.509Z,12
2019-04-01T19:33:01.763Z,11
2019-04-01T19:34:01.948Z,12
2019-04-01T19:35:02.274Z,14
2019-04-01T19:36:02.430Z,14
2019-04-01T19:37:01.689Z,14
2019-04-01T19:38:01.808Z,14
2019-04-01T19:39:01.993Z,11
2019-04-01T19:40:02.303Z,11
2019-04-01T19:41:01.507Z,11
2019-04-01T19:42:01.705Z,11
2019-04-01T19:43:03.554Z,11
2019-04-01T19:44:02.125Z,11
2019-04-01T19:45:02.414Z,12
2019-04-01T19:46:01.563Z,10
2019-04-01T19:47:01.827Z,15
2019-04-01T19:48:02.374Z,15
2019-04-01T19:49:04.995Z,15
2019-04-01T19:50:02.222Z,15
2019-04-01T19:51:01.606Z,12
2019-04-01T19:52:01.861Z,12
2019-04-01T19:53:02.791Z,14
2019-04-01T19:54:02.218Z,14
2019-04-01T19:55:03.202Z,14
2019-04-01T19:56:03.017Z,7
2019-04-01T19:57:01.955Z,7
2019-04-01T19:58:04.896Z,7
2019-04-01T19:59:02.350Z,7
2019-04-01T20:00:04.987Z,7
2019-04-01T20:01:01.652Z,7
2019-04-01T20:02:01.903Z,7
2019-04-01T20:03:02.063Z,7
2019-04-01T20:04:02.258Z,7
2019-04-01T20:05:01.418Z,7
2019-04-01T20:06:01.736Z,7
2019-04-01T20:07:01.899Z,7
2019-04-01T20:08:02.135Z,7
2019-04-01T20:09:02.322Z,7
2019-04-01T20:10:04.616Z,7
2019-04-01T20:11:01.865Z,7
2019-04-01T20:12:01.682Z,7
2019-04-01T20:13:01.836Z,7
2019-04-01T20:14:02.057Z,7
2019-04-01T20:15:02.323Z,7
2019-04-01T20:16:01.592Z,7
2019-04-01T20:17:02.048Z,7
2019-04-01T20:18:01.960Z,7
2019-04-01T20:19:02.171Z,7
2019-04-01T20:20:02.582Z,7
2019-04-01T20:21:01.510Z,7
2019-04-01T20:22:01.706Z,7
2019-04-01T20:23:01.970Z,7
2019-04-01T20:24:02.330Z,7
2019-04-01T20:25:01.482Z,7
2019-04-01T20:26:01.644Z,7
2019-04-01T20:27:01.839Z,7
2019-04-01T20:28:02.127Z,7
2019-04-01T20:29:02.406Z,7
2019-04-01T20:30:01.650Z,7
2019-04-01T20:31:01.779Z,7
2019-04-01T20:32:02.040Z,7
2019-04-01T20:33:02.350Z,7
2019-04-01T20:34:04.089Z,7
2019-04-01T20:35:01.663Z,7
2019-04-01T20:36:01.942Z,7
2019-04-01T20:37:02.175Z,7
2019-04-01T20:38:02.298Z,7
2019-04-01T20:39:01.563Z,7
2019-04-01T20:40:01.882Z,7
2019-04-01T20:41:02.110Z,7
2019-04-01T20:42:02.334Z,7
2019-04-01T20:43:01.626Z,7
2019-04-01T20:44:01.759Z,7
2019-04-01T20:45:02.101Z,7
2019-04-01T20:46:02.248Z,7
2019-04-01T20:47:01.558Z,7
2019-04-01T20:48:01.844Z,7
2019-04-01T20:49:02.242Z,7
2019-04-01T20:50:02.169Z,7
2019-04-01T20:51:02.369Z,7
2019-04-01T20:52:01.581Z,7
2019-04-01T20:53:01.833Z,7
2019-04-01T20:54:01.952Z,7
2019-04-01T20:55:02.199Z,7
2019-04-01T20:56:02.372Z,7
2019-04-01T20:57:01.590Z,7
2019-04-01T20:58:01.795Z,7
2019-04-01T20:59:02.056Z,7
2019-04-01T21:00:03.446Z,7
2019-04-01T21:01:02.338Z,7
2019-04-01T21:02:01.563Z,7
2019-04-01T21:03:01.723Z,7
2019-04-01T21:04:01.900Z,7
2019-04-01T21:05:02.088Z,7
2019-04-01T21:06:02.199Z,7
2019-04-01T21:07:02.395Z,7
2019-04-01T21:08:01.631Z,7
2019-04-01T21:09:01.835Z,7
2019-04-01T21:10:02.157Z,7
2019-04-01T21:11:02.363Z,7
2019-04-01T21:12:03.022Z,7
2019-04-01T21:13:01.787Z,7
2019-04-01T21:14:03.130Z,7
2019-04-01T21:15:02.386Z,7
2019-04-01T21:16:01.551Z,7
2019-04-01T21:17:01.795Z,7
2019-04-01T21:18:02.010Z,7
2019-04-01T21:19:02.155Z,0
2019-04-01T21:20:02.452Z,29
2019-04-01T21:21:01.575Z,34
2019-04-01T21:22:01.848Z,29
2019-04-01T21:23:01.985Z,27
2019-04-01T21:24:02.254Z,30
2019-04-01T21:25:02.294Z,28
2019-04-01T21:26:02.118Z,26
2019-04-01T21:27:02.312Z,24
2019-04-01T21:28:01.530Z,23
2019-04-01T21:29:01.774Z,24
2019-04-01T21:30:02.003Z,25
2019-04-01T21:31:02.130Z,19
2019-04-01T21:32:02.333Z,19
2019-04-01T21:33:01.524Z,18
2019-04-01T21:34:01.760Z,17
2019-04-01T21:35:01.978Z,19
2019-04-01T21:36:02.187Z,21
2019-04-01T21:37:03.337Z,21
2019-04-01T21:38:01.701Z,18
2019-04-01T21:39:01.948Z,21
2019-04-01T21:40:02.287Z,21
2019-04-01T21:41:01.543Z,19
2019-04-01T21:42:01.744Z,17
2019-04-01T21:43:03.324Z,18
2019-04-01T21:44:02.144Z,17
2019-04-01T21:45:02.459Z,19
2019-04-01T21:46:01.643Z,18
2019-04-01T21:47:01.833Z,17
2019-04-01T21:48:02.056Z,17
2019-04-01T21:49:02.361Z,15
2019-04-01T21:50:01.583Z,16
2019-04-01T21:51:01.785Z,15
2019-04-01T21:52:02.269Z,12
2019-04-01T21:53:02.586Z,17
2019-04-01T21:54:01.500Z,9
2019-04-01T21:55:01.790Z,9
2019-04-01T21:56:01.893Z,10
2019-04-01T21:57:02.095Z,7
2019-04-01T21:58:02.318Z,6
2019-04-01T21:59:01.480Z,7
2019-04-01T22:00:02.411Z,4
2019-04-01T22:01:01.788Z,8
2019-04-01T22:02:01.961Z,7
2019-04-01T22:03:04.384Z,15
2019-04-01T22:04:02.330Z,14
2019-04-01T22:05:01.607Z,16
2019-04-01T22:06:01.890Z,13
2019-04-01T22:07:02.004Z,12
2019-04-01T22:08:02.256Z,16
2019-04-01T22:09:01.559Z,12
2019-04-01T22:10:02.415Z,16
2019-04-01T22:11:02.018Z,16
2019-04-01T22:12:02.173Z,16
2019-04-01T22:13:02.356Z,16
2019-04-01T22:14:01.575Z,16
2019-04-01T22:15:01.859Z,15
2019-04-01T22:16:02.021Z,14
2019-04-01T22:17:02.145Z,12
2019-04-01T22:18:02.356Z,12
2019-04-01T22:19:01.675Z,12
2019-04-01T22:20:01.831Z,12
2019-04-01T22:21:02.053Z,14
2019-04-01T22:22:02.231Z,14
2019-04-01T22:23:01.517Z,12
2019-04-01T22:24:01.650Z,12
2019-04-01T22:25:01.826Z,12
2019-04-01T22:26:01.993Z,12
2019-04-01T22:27:02.160Z,12
2019-04-01T22:28:01.487Z,12
2019-04-01T22:29:01.672Z,12
2019-04-01T22:30:01.920Z,12
2019-04-01T22:31:02.087Z,12
2019-04-01T22:32:02.323Z,12
2019-04-01T22:33:01.480Z,12
2019-04-01T22:34:01.727Z,12
2019-04-01T22:35:01.915Z,9
2019-04-01T22:36:02.142Z,9
2019-04-01T22:37:02.338Z,9
2019-04-01T22:38:03.430Z,9
2019-04-01T22:39:01.885Z,9
2019-04-01T22:40:02.085Z,10
2019-04-01T22:41:02.188Z,12
2019-04-01T22:42:01.420Z,12
2019-04-01T22:43:01.645Z,12
2019-04-01T22:44:01.887Z,12
2019-04-01T22:45:02.135Z,12
2019-04-01T22:46:02.439Z,12
2019-04-01T22:47:01.971Z,12
2019-04-01T22:48:02.063Z,12
2019-04-01T22:49:02.316Z,12
2019-04-01T22:50:01.517Z,12
2019-04-01T22:51:01.802Z,12
2019-04-01T22:52:01.963Z,9
2019-04-01T22:53:02.173Z,12
2019-04-01T22:54:02.788Z,12
2019-04-01T22:55:01.677Z,12
2019-04-01T22:56:01.890Z,12
2019-04-01T22:57:02.078Z,12
2019-04-01T22:58:02.237Z,15
2019-04-01T22:59:02.372Z,14
2019-04-01T23:00:07.251Z,14
2019-04-01T23:01:02.165Z,14
2019-04-01T23:02:02.321Z,14
2019-04-01T23:03:01.510Z,14
2019-04-01T23:04:01.763Z,9
2019-04-01T23:05:01.983Z,9
2019-04-01T23:06:02.270Z,9
2019-04-01T23:07:01.405Z,9
2019-04-01T23:08:02.412Z,9
2019-04-01T23:09:01.973Z,9
2019-04-01T23:10:02.228Z,9
2019-04-01T23:11:01.472Z,10
2019-04-01T23:12:01.763Z,10
2019-04-01T23:13:01.894Z,10
2019-04-01T23:14:01.962Z,10
2019-04-01T23:15:02.196Z,10
2019-04-01T23:16:02.361Z,10
2019-04-01T23:17:01.661Z,10
2019-04-01T23:18:01.848Z,10
2019-04-01T23:19:01.986Z,10
2019-04-01T23:20:03.459Z,10
2019-04-01T23:21:02.173Z,10
2019-04-01T23:22:01.796Z,10
2019-04-01T23:23:01.930Z,12
2019-04-01T23:24:02.205Z,12
2019-04-01T23:25:02.460Z,12
2019-04-01T23:26:01.660Z,12
2019-04-01T23:27:01.833Z,12
2019-04-01T23:28:02.040Z,14
2019-04-01T23:29:02.276Z,10
2019-04-01T23:30:01.421Z,10
2019-04-01T23:31:01.657Z,10
2019-04-01T23:32:01.855Z,10
2019-04-01T23:33:02.111Z,10
2019-04-01T23:34:02.284Z,8
2019-04-01T23:35:01.511Z,12
2019-04-01T23:36:01.892Z,12
2019-04-01T23:37:02.037Z,12
2019-04-01T23:38:02.249Z,12
2019-04-01T23:39:01.511Z,12
2019-04-01T23:40:02.389Z,9
2019-04-01T23:41:02.270Z,8
2019-04-01T23:42:01.574Z,8
2019-04-01T23:43:01.834Z,8
2019-04-01T23:44:02.080Z,8
2019-04-01T23:45:02.299Z,8
2019-04-01T23:46:01.474Z,9
2019-04-01T23:47:01.697Z,9
2019-04-01T23:48:01.955Z,9
2019-04-01T23:49:02.218Z,9
2019-04-01T23:50:01.776Z,9
2019-04-01T23:51:02.077Z,9
2019-04-01T23:52:02.250Z,7
2019-04-01T23:53:02.290Z,8
2019-04-01T23:54:02.280Z,8
2019-04-01T23:55:01.956Z,8
2019-04-01T23:56:02.151Z,8
2019-04-01T23:57:02.435Z,8
2019-04-01T23:58:01.557Z,12
2019-04-01T23:59:01.761Z,8
